Time;durP1;ratioP1;P1;durP2;ratioP2;P2;SDS_P1;SDS_P2;PMS_P1;PMS_P2;Temp;Humidity;BMP_temperature;BMP_pressure;BME280_temperature;BME280_humidity;BME280_pressure;Samples;Min_cycle;Max_cycle;Signal;HPM_P1;HPM_P2
2023/09/02 00:01:35;;;;;;;5.77;3.30;;;;;;;16.89;100.00;98236.75;5073475;28;20690;-76
2023/09/02 00:04:04;;;;;;;6.03;3.57;;;;;;;16.84;100.00;98235.91;5073499;28;20544;-77
2023/09/02 00:06:31;;;;;;;3.87;3.20;;;;;;;16.86;100.00;98231.88;5073754;28;20208;-76
2023/09/02 00:08:57;;;;;;;6.07;3.30;;;;;;;16.91;100.00;98236.47;5073691;28;20279;-76
2023/09/02 00:11:24;;;;;;;7.00;3.57;;;;;;;16.88;100.00;98245.06;5073760;28;20205;-76
2023/09/02 00:13:51;;;;;;;4.57;3.33;;;;;;;16.89;100.00;98247.50;5073735;28;20205;-76
2023/09/02 00:16:17;;;;;;;5.07;3.33;;;;;;;16.84;100.00;98246.63;5073715;28;20205;-76
2023/09/02 00:18:46;;;;;;;6.73;3.50;;;;;;;16.90;100.00;98240.25;5073869;28;20231;-76
2023/09/02 00:21:12;;;;;;;6.00;3.13;;;;;;;16.82;100.00;98241.50;5073645;28;20204;-76
2023/09/02 00:23:45;;;;;;;5.00;3.23;;;;;;;16.84;100.00;98244.78;5073643;28;20205;-75
2023/09/02 00:26:11;;;;;;;5.97;3.23;;;;;;;16.75;100.00;98248.97;5073675;28;20189;-75
2023/09/02 00:28:38;;;;;;;6.37;2.87;;;;;;;16.75;100.00;98251.66;5073063;28;20703;-75
2023/09/02 00:31:04;;;;;;;4.97;3.17;;;;;;;16.89;100.00;98252.06;5073258;28;20222;-75
2023/09/02 00:33:31;;;;;;;4.37;3.33;;;;;;;16.82;100.00;98251.47;5073596;28;20204;-75
2023/09/02 00:35:57;;;;;;;4.73;3.70;;;;;;;16.66;100.00;98247.81;5073427;28;20261;-75
2023/09/02 00:38:23;;;;;;;4.00;3.07;;;;;;;16.67;100.00;98249.44;5073403;28;20197;-75
2023/09/02 00:41:00;;;;;;;5.03;3.60;;;;;;;16.65;100.00;98250.75;5073515;28;20230;-75
2023/09/02 00:43:26;;;;;;;5.93;3.07;;;;;;;16.62;100.00;98260.13;5072064;28;20536;-75
2023/09/02 00:45:53;;;;;;;5.47;3.00;;;;;;;16.67;100.00;98257.47;5073241;28;20209;-75
2023/09/02 00:48:19;;;;;;;3.67;3.33;;;;;;;16.66;100.00;98258.56;5073379;28;20220;-75
2023/09/02 00:50:45;;;;;;;5.03;3.23;;;;;;;16.63;100.00;98252.84;5073342;28;20209;-75
2023/09/02 00:53:12;;;;;;;5.23;3.20;;;;;;;16.59;100.00;98257.09;5073375;28;20201;-75
2023/09/02 00:55:39;;;;;;;7.30;3.43;;;;;;;16.60;100.00;98259.53;5073404;28;20209;-75
2023/09/02 00:58:07;;;;;;;3.73;3.33;;;;;;;16.57;100.00;98248.50;5073628;28;20234;-75
2023/09/02 01:00:33;;;;;;;5.37;3.43;;;;;;;16.56;100.00;98250.38;5072966;28;20235;-75
2023/09/02 01:03:00;;;;;;;4.43;3.43;;;;;;;16.56;100.00;98244.22;5074696;28;20258;-75
2023/09/02 01:05:26;;;;;;;4.83;3.00;;;;;;;16.54;100.00;98246.31;5077279;28;20215;-75
2023/09/02 01:07:54;;;;;;;5.20;3.40;;;;;;;16.59;100.00;98247.19;5076736;28;20270;-75
2023/09/02 01:10:22;;;;;;;3.93;3.07;;;;;;;16.56;100.00;98252.25;5076912;28;20229;-75
2023/09/02 01:12:48;;;;;;;4.10;3.10;;;;;;;16.52;100.00;98237.72;5077331;28;20204;-76
2023/09/02 01:15:15;;;;;;;4.77;3.73;;;;;;;16.49;100.00;98240.88;5077034;28;20215;-76
2023/09/02 01:17:41;;;;;;;5.23;3.57;;;;;;;16.49;100.00;98246.25;5076993;28;20222;-76
2023/09/02 01:20:11;;;;;;;5.47;4.10;;;;;;;16.47;100.00;98251.88;5077136;28;20631;-76
2023/09/02 01:23:08;;;;;;;5.30;3.90;;;;;;;16.54;100.00;98252.50;5076848;28;20205;-76
2023/09/02 01:26:13;;;;;;;6.00;3.53;;;;;;;16.43;100.00;98244.59;5076838;28;20200;-76
2023/09/02 01:28:43;;;;;;;4.67;3.57;;;;;;;16.37;100.00;98251.72;5034349;28;20229;-76
2023/09/02 01:31:13;;;;;;;8.73;3.73;;;;;;;16.41;100.00;98257.44;5035155;28;20256;-76
2023/09/02 01:33:41;;;;;;;4.37;3.20;;;;;;;16.39;100.00;98254.16;5055981;28;20204;-76
2023/09/02 01:36:12;;;;;;;5.03;3.00;;;;;;;16.33;100.00;98260.56;5076587;28;20211;-76
2023/09/02 01:38:40;;;;;;;4.77;3.57;;;;;;;16.31;100.00;98252.75;5076760;28;20215;-76
2023/09/02 01:41:09;;;;;;;4.60;3.73;;;;;;;16.35;100.00;98264.59;5076545;28;20211;-76
2023/09/02 01:43:36;;;;;;;5.37;3.97;;;;;;;16.33;100.00;98258.66;5076443;28;20204;-76
2023/09/02 01:46:03;;;;;;;8.87;4.23;;;;;;;16.26;100.00;98258.06;5076391;28;20208;-76
2023/09/02 01:48:30;;;;;;;6.43;5.00;;;;;;;16.21;100.00;98260.69;5076345;28;20581;-76
2023/09/02 01:50:58;;;;;;;6.10;5.00;;;;;;;16.16;100.00;98257.94;5076353;28;20211;-76
2023/09/02 01:53:25;;;;;;;7.03;4.83;;;;;;;16.10;100.00;98260.81;5076143;28;20205;-76
2023/09/02 01:55:52;;;;;;;7.30;4.40;;;;;;;16.46;100.00;98271.72;5076216;28;20204;-76
2023/09/02 01:58:18;;;;;;;4.90;4.10;;;;;;;16.23;100.00;98261.22;5076231;28;20210;-76
2023/09/02 02:00:45;;;;;;;5.47;4.70;;;;;;;16.29;100.00;98267.47;5075923;28;20575;-76
2023/09/02 02:03:20;;;;;;;4.47;3.87;;;;;;;16.30;100.00;98266.41;5076400;28;20206;-76
2023/09/02 02:05:53;;;;;;;4.53;3.63;;;;;;;16.26;100.00;98263.41;5076192;28;20199;-76
2023/09/02 02:08:37;;;;;;;6.07;3.37;;;;;;;16.22;100.00;98267.66;5075781;28;20675;-76
2023/09/02 02:11:06;;;;;;;3.37;3.00;;;;;;;16.22;100.00;98267.66;5076055;28;20246;-76
2023/09/02 02:13:32;;;;;;;4.67;2.97;;;;;;;16.11;100.00;98273.94;5075859;28;20208;-76
2023/09/02 02:15:58;;;;;;;4.47;3.50;;;;;;;16.04;100.00;98265.28;5075678;28;20208;-76
2023/09/02 02:18:25;;;;;;;4.23;3.13;;;;;;;15.94;100.00;98267.81;5075901;28;20571;-76
2023/09/02 02:21:02;;;;;;;5.13;2.97;;;;;;;15.87;100.00;98266.38;5075989;28;20291;-76
2023/09/02 02:23:28;;;;;;;5.20;3.07;;;;;;;15.97;100.00;98277.25;5075640;28;20733;-76
2023/09/02 02:26:05;;;;;;;3.37;2.97;;;;;;;15.97;100.00;98275.34;5075672;28;20265;-76
2023/09/02 02:28:31;;;;;;;3.80;2.90;;;;;;;16.00;100.00;98276.72;5075580;28;20224;-76
2023/09/02 02:30:59;;;;;;;4.00;3.10;;;;;;;16.07;100.00;98278.19;5075414;28;20218;-76
2023/09/02 02:33:26;;;;;;;4.67;3.10;;;;;;;16.07;100.00;98277.38;5075668;28;20717;-76
2023/09/02 02:35:52;;;;;;;3.77;2.83;;;;;;;16.14;100.00;98281.50;5075555;28;20205;-76
2023/09/02 02:38:19;;;;;;;4.70;3.37;;;;;;;15.94;100.00;98277.72;5075458;28;20205;-76
2023/09/02 02:40:45;;;;;;;4.50;3.40;;;;;;;15.94;100.00;98277.72;5075439;28;20567;-76
2023/09/02 02:43:12;;;;;;;4.23;2.90;;;;;;;15.89;100.00;98283.03;5075429;28;20204;-76
2023/09/02 02:45:38;;;;;;;4.83;3.17;;;;;;;15.84;100.00;98280.28;5075345;28;20593;-76
2023/09/02 02:48:05;;;;;;;5.80;3.00;;;;;;;15.89;100.00;98285.72;5074916;28;20591;-76
2023/09/02 02:50:35;;;;;;;5.93;3.07;;;;;;;15.87;100.00;98277.91;5075174;28;20228;-76
2023/09/02 02:53:02;;;;;;;5.47;3.80;;;;;;;15.82;100.00;98277.84;5075383;28;20250;-76
2023/09/02 02:55:28;;;;;;;6.63;4.13;;;;;;;15.78;100.00;98281.28;5075195;28;20227;-76
2023/09/02 02:57:56;;;;;;;6.00;3.20;;;;;;;15.84;100.00;98273.03;5074896;28;20568;-76
2023/09/02 03:00:22;;;;;;;6.87;3.63;;;;;;;15.78;100.00;98275.91;5074988;28;20231;-76
2023/09/02 03:02:52;;;;;;;7.90;3.30;;;;;;;15.77;100.00;98274.25;5074692;28;20556;-76
2023/09/02 03:05:19;;;;;;;7.33;3.27;;;;;;;15.78;100.00;98274.03;5074981;28;20571;-76
2023/09/02 03:07:46;;;;;;;5.07;3.33;;;;;;;15.78;100.00;98282.06;5074436;28;20627;-76
2023/09/02 03:10:12;;;;;;;4.53;3.10;;;;;;;15.77;100.00;98280.44;5074643;28;20221;-76
2023/09/02 03:12:39;;;;;;;5.30;3.20;;;;;;;15.77;100.00;98279.63;5074763;28;20211;-76
2023/09/02 03:15:06;;;;;;;4.53;3.10;;;;;;;15.82;100.00;98291.25;5074450;28;20215;-76
2023/09/02 03:17:32;;;;;;;4.27;2.97;;;;;;;15.84;100.00;98289.13;5074501;28;20209;-76
2023/09/02 03:19:59;;;;;;;5.33;3.20;;;;;;;15.89;100.00;98294.56;5074486;28;20217;-76
2023/09/02 03:22:25;;;;;;;3.87;3.10;;;;;;;15.92;100.00;98293.28;5074593;28;20372;-76
2023/09/02 03:24:54;;;;;;;3.37;3.07;;;;;;;15.93;100.00;98290.31;5073788;28;20209;-76
2023/09/02 03:27:21;;;;;;;5.87;3.30;;;;;;;15.86;100.00;98294.25;5073931;28;20690;-76
2023/09/02 03:29:51;;;;;;;5.80;3.40;;;;;;;15.85;100.00;98298.81;5074190;28;20290;-76
2023/09/02 03:32:18;;;;;;;5.43;3.00;;;;;;;15.96;100.00;98295.19;5074365;28;20247;-76
2023/09/02 03:34:44;;;;;;;4.77;3.27;;;;;;;15.88;100.00;98289.47;5074341;28;20204;-76
2023/09/02 03:37:10;;;;;;;3.60;3.30;;;;;;;15.85;100.00;98288.09;5074132;28;20211;-76
2023/09/02 03:39:36;;;;;;;5.37;2.97;;;;;;;15.88;100.00;98286.78;5074139;28;20220;-76
2023/09/02 03:42:03;;;;;;;4.03;3.37;;;;;;;15.87;100.00;98283.28;5074130;28;20211;-76
2023/09/02 03:44:30;;;;;;;5.87;3.20;;;;;;;15.89;100.00;98288.38;5073850;28;20215;-76
2023/09/02 03:46:56;;;;;;;7.10;3.40;;;;;;;15.87;100.00;98282.47;5074319;28;20209;-76
2023/09/02 03:49:22;;;;;;;3.97;3.00;;;;;;;15.75;100.00;98284.44;5073736;28;20598;-76
2023/09/02 03:51:49;;;;;;;4.37;3.10;;;;;;;15.70;100.00;98285.16;5073716;28;20671;-76
2023/09/02 03:54:15;;;;;;;4.20;3.10;;;;;;;15.64;100.00;98286.16;5073873;28;20716;-76
2023/09/02 03:56:41;;;;;;;4.07;3.30;;;;;;;15.59;100.00;98283.41;5073936;28;20204;-76
2023/09/02 03:59:08;;;;;;;4.17;3.03;;;;;;;15.63;100.00;98289.91;5073959;28;20266;-76
2023/09/02 04:01:34;;;;;;;3.90;3.30;;;;;;;15.58;100.00;98292.50;5074011;28;20207;-76
2023/09/02 04:04:01;;;;;;;6.30;3.43;;;;;;;15.56;100.00;98296.47;5074793;28;20541;-77
2023/09/02 04:06:27;;;;;;;7.90;3.80;;;;;;;15.57;100.00;98296.25;5091463;28;20204;-77
2023/09/02 04:08:53;;;;;;;3.67;3.30;;;;;;;15.61;100.00;98299.22;5093560;28;20233;-77
2023/09/02 04:11:20;;;;;;;3.73;3.30;;;;;;;15.59;100.00;98301.34;5093541;28;20570;-77
2023/09/02 04:13:46;;;;;;;7.07;3.50;;;;;;;15.38;100.00;98304.75;5091584;28;20567;-77
2023/09/02 04:16:13;;;;;;;3.87;3.00;;;;;;;15.37;100.00;98303.16;5078989;28;20544;-77
2023/09/02 04:18:39;;;;;;;3.80;3.13;;;;;;;15.53;100.00;98305.81;5093346;28;20207;-77
2023/09/02 04:21:08;;;;;;;4.93;3.03;;;;;;;15.52;100.00;98298.81;5093778;28;20296;-77
2023/09/02 04:23:35;;;;;;;8.73;3.30;;;;;;;15.55;100.00;98303.69;5093804;28;20249;-77
2023/09/02 04:26:02;;;;;;;3.33;3.03;;;;;;;15.66;100.00;98305.50;5093487;28;20199;-77
2023/09/02 04:28:28;;;;;;;3.70;3.27;;;;;;;15.54;100.00;98298.56;5082704;28;20297;-77
2023/09/02 04:30:55;;;;;;;4.17;3.30;;;;;;;15.53;100.00;98313.88;5088092;28;20569;-77
2023/09/02 04:33:23;;;;;;;5.33;3.00;;;;;;;15.57;100.00;98311.50;5091532;28;20222;-77
2023/09/02 04:35:50;;;;;;;3.30;3.00;;;;;;;15.60;100.00;98316.38;5073388;28;20239;-77
2023/09/02 04:38:17;;;;;;;5.27;3.23;;;;;;;15.57;100.00;98317.69;5079991;28;20664;-77
2023/09/02 04:40:45;;;;;;;4.90;3.20;;;;;;;15.71;100.00;98324.34;5079988;28;20246;-77
2023/09/02 04:43:13;;;;;;;5.30;3.20;;;;;;;15.74;100.00;98313.09;5084681;28;20192;-77
2023/09/02 04:45:41;;;;;;;3.43;3.13;;;;;;;15.42;100.00;98311.25;5099886;28;20200;-77
2023/09/02 04:48:09;;;;;;;3.50;2.73;;;;;;;15.35;100.00;98314.09;5100137;28;20299;-77
2023/09/02 04:50:37;;;;;;;4.57;3.10;;;;;;;15.39;100.00;98317.91;5099698;28;20714;-77
2023/09/02 04:53:05;;;;;;;4.80;2.77;;;;;;;15.46;100.00;98307.00;5083881;28;20552;-77
2023/09/02 04:55:31;;;;;;;3.23;3.00;;;;;;;15.39;100.00;98309.06;5082629;28;20272;-77
2023/09/02 04:57:58;;;;;;;3.63;3.30;;;;;;;15.43;100.00;98313.66;5087531;28;20227;-77
2023/09/02 05:00:28;;;;;;;4.40;4.00;;;;;;;15.50;100.00;98324.22;5079503;28;20707;-77
2023/09/02 05:02:55;;;;;;;5.33;3.63;;;;;;;15.48;100.00;98332.53;5079379;28;20208;-77
2023/09/02 05:05:23;;;;;;;4.17;3.50;;;;;;;15.51;100.00;98334.72;5079829;28;20214;-77
2023/09/02 05:07:50;;;;;;;4.60;3.50;;;;;;;15.58;100.00;98338.06;5079759;28;20212;-77
2023/09/02 05:10:16;;;;;;;6.57;3.30;;;;;;;15.62;100.00;98349.09;5079275;28;20598;-77
2023/09/02 05:12:43;;;;;;;7.43;3.23;;;;;;;15.59;100.00;98338.84;5079832;28;20204;-77
2023/09/02 05:15:10;;;;;;;9.07;3.27;;;;;;;15.75;100.00;98346.09;5079771;28;20204;-77
2023/09/02 05:17:37;;;;;;;4.10;3.43;;;;;;;15.69;100.00;98342.50;5079646;28;20671;-77
2023/09/02 05:20:04;;;;;;;3.90;3.60;;;;;;;15.73;100.00;98342.81;5079692;28;20220;-77
2023/09/02 05:22:32;;;;;;;4.07;3.67;;;;;;;15.77;100.00;98343.97;5079998;28;20661;-77
2023/09/02 05:24:58;;;;;;;5.47;3.63;;;;;;;15.84;100.00;98339.25;5079930;28;20209;-77
2023/09/02 05:27:25;;;;;;;5.47;3.57;;;;;;;15.88;100.00;98343.09;5079749;28;20215;-77
2023/09/02 05:29:51;;;;;;;3.50;3.20;;;;;;;16.00;100.00;98339.22;5079470;28;20235;-77
2023/09/02 05:32:18;;;;;;;8.47;3.80;;;;;;;15.88;100.00;98346.56;5079948;28;20204;-77
2023/09/02 05:34:45;;;;;;;6.27;3.67;;;;;;;15.84;100.00;98344.63;5079483;28;20671;-77
2023/09/02 05:37:12;;;;;;;6.10;3.57;;;;;;;15.99;100.00;98350.22;5079746;28;20215;-77
2023/09/02 05:39:38;;;;;;;5.07;3.50;;;;;;;15.93;100.00;98348.50;5078978;28;20311;-77
2023/09/02 05:42:05;;;;;;;6.53;3.27;;;;;;;15.97;100.00;98355.00;5079545;28;20299;-77
2023/09/02 05:44:34;;;;;;;3.63;3.33;;;;;;;15.89;100.00;98350.06;5079348;28;20200;-76
2023/09/02 05:47:00;;;;;;;4.50;3.67;;;;;;;15.99;100.00;98351.03;5079114;28;20762;-76
2023/09/02 05:49:27;;;;;;;5.00;2.90;;;;;;;16.11;100.00;98354.41;5076222;28;20234;-76
2023/09/02 05:51:53;;;;;;;6.80;3.80;;;;;;;16.13;100.00;98356.84;5076532;28;20217;-76
2023/09/02 05:54:19;;;;;;;5.50;3.10;;;;;;;16.13;100.00;98367.56;5076163;28;20205;-76
2023/09/02 05:56:48;;;;;;;6.30;3.77;;;;;;;16.22;100.00;98353.50;5075622;28;20208;-76
2023/09/02 05:59:15;;;;;;;3.77;3.37;;;;;;;16.30;100.00;98352.25;5075613;28;20703;-76
2023/09/02 06:01:43;;;;;;;6.03;3.17;;;;;;;16.36;100.00;98346.72;5075564;28;20660;-76
2023/09/02 06:04:09;;;;;;;3.57;3.27;;;;;;;16.49;100.00;98357.13;5075723;28;20208;-76
2023/09/02 06:06:35;;;;;;;3.10;2.90;;;;;;;16.51;100.00;98352.31;5075618;28;20208;-76
2023/09/02 06:09:02;;;;;;;3.33;3.03;;;;;;;16.52;100.00;98363.84;5075501;28;20220;-76
2023/09/02 06:11:30;;;;;;;6.47;3.20;;;;;;;16.54;100.00;98367.91;5076264;28;20208;-76
2023/09/02 06:13:57;;;;;;;3.47;2.97;;;;;;;16.52;100.00;98367.34;5076088;28;20207;-76
2023/09/02 06:16:23;;;;;;;5.63;3.03;;;;;;;16.62;100.00;98358.63;5076146;28;20215;-76
2023/09/02 06:18:49;;;;;;;3.63;2.93;;;;;;;16.79;100.00;98360.16;5075805;28;20225;-76
2023/09/02 06:21:16;;;;;;;3.17;2.97;;;;;;;16.66;100.00;98359.75;5075714;28;20205;-76
2023/09/02 06:23:44;;;;;;;3.10;2.80;;;;;;;16.73;100.00;98358.50;5075608;28;20214;-76
2023/09/02 06:26:11;;;;;;;3.13;2.83;;;;;;;16.93;100.00;98361.41;5075514;28;20205;-76
2023/09/02 06:28:38;;;;;;;4.47;2.97;;;;;;;16.88;100.00;98372.09;5075464;28;20215;-76
2023/09/02 06:31:09;;;;;;;4.93;3.07;;;;;;;16.92;100.00;98362.47;5075214;28;20212;-76
2023/09/02 06:33:35;;;;;;;4.00;2.80;;;;;;;16.97;100.00;98362.50;5075583;28;20326;-76
2023/09/02 06:36:10;;;;;;;3.20;2.87;;;;;;;16.99;100.00;98363.09;5075128;28;20205;-76
2023/09/02 06:38:37;;;;;;;3.47;2.90;;;;;;;17.08;100.00;98363.44;5075336;28;20238;-76
2023/09/02 06:41:11;;;;;;;3.97;2.87;;;;;;;17.20;100.00;98361.44;5075612;28;20217;-76
2023/09/02 06:43:38;;;;;;;4.20;3.00;;;;;;;17.23;100.00;98359.03;5075371;28;20203;-76
2023/09/02 06:46:11;;;;;;;3.17;2.87;;;;;;;17.31;100.00;98374.72;5075219;28;20211;-76
2023/09/02 06:48:38;;;;;;;3.63;3.20;;;;;;;17.34;100.00;98368.84;5075100;28;20207;-76
2023/09/02 06:51:04;;;;;;;3.10;2.77;;;;;;;17.48;100.00;98364.69;5075187;28;20200;-76
2023/09/02 06:53:30;;;;;;;3.67;2.70;;;;;;;17.52;100.00;98365.81;5088772;28;20196;-76
2023/09/02 06:55:57;;;;;;;5.30;2.70;;;;;;;17.63;100.00;98369.38;5095024;28;20210;-76
2023/09/02 06:58:23;;;;;;;3.30;2.70;;;;;;;17.70;100.00;98384.25;5095210;28;20212;-76
2023/09/02 07:00:49;;;;;;;3.57;2.33;;;;;;;17.73;100.00;98381.03;5093989;28;20204;-76
2023/09/02 07:03:16;;;;;;;2.60;2.40;;;;;;;17.86;100.00;98388.69;5095198;28;20204;-76
2023/09/02 07:05:42;;;;;;;3.17;2.77;;;;;;;17.96;100.00;98390.66;5095092;28;20214;-76
2023/09/02 07:08:08;;;;;;;5.63;3.03;;;;;;;17.94;100.00;98382.81;5094930;28;20215;-76
2023/09/02 07:10:35;;;;;;;3.87;2.70;;;;;;;18.10;100.00;98383.75;5094615;28;20598;-76
2023/09/02 07:13:01;;;;;;;2.77;2.47;;;;;;;18.13;100.00;98386.72;5094873;28;20204;-76
2023/09/02 07:15:28;;;;;;;4.83;2.73;;;;;;;18.18;100.00;98392.13;5094672;28;20207;-76
2023/09/02 07:17:54;;;;;;;3.07;2.70;;;;;;;18.23;100.00;98389.47;5094858;28;20208;-76
2023/09/02 07:20:20;;;;;;;5.33;2.87;;;;;;;18.34;100.00;98391.22;5094686;28;20294;-76
2023/09/02 07:22:47;;;;;;;3.63;2.70;;;;;;;18.51;100.00;98396.41;5094735;28;20226;-76
2023/09/02 07:25:13;;;;;;;3.93;2.70;;;;;;;18.48;100.00;98389.69;5094682;28;20203;-76
2023/09/02 07:27:39;;;;;;;5.83;2.83;;;;;;;18.53;100.00;98397.78;5094183;28;20210;-76
2023/09/02 07:30:06;;;;;;;4.97;3.30;;;;;;;18.62;100.00;98398.91;5094004;28;20228;-76
2023/09/02 07:32:33;;;;;;;3.47;3.00;;;;;;;18.80;100.00;98403.84;5094531;28;20204;-76
2023/09/02 07:34:59;;;;;;;3.93;2.63;;;;;;;18.94;100.00;98399.59;5094111;28;20200;-75
2023/09/02 07:37:25;;;;;;;2.80;2.60;;;;;;;18.86;100.00;98404.69;5094152;28;20667;-75
2023/09/02 07:39:52;;;;;;;3.27;2.57;;;;;;;18.80;100.00;98405.72;5094228;28;20220;-76
2023/09/02 07:42:18;;;;;;;7.70;2.80;;;;;;;19.06;100.00;98410.13;5094341;28;20678;-76
2023/09/02 07:44:44;;;;;;;8.03;2.60;;;;;;;19.15;100.00;98405.84;5093996;28;20681;-76
2023/09/02 07:47:11;;;;;;;2.63;2.43;;;;;;;19.27;100.00;98412.66;5094127;28;20551;-76
2023/09/02 07:49:37;;;;;;;4.27;2.50;;;;;;;19.39;100.00;98418.63;5094014;28;20617;-76
2023/09/02 07:52:04;;;;;;;4.47;2.60;;;;;;;19.46;100.00;98411.06;5093797;28;20573;-76
2023/09/02 07:54:30;;;;;;;3.37;2.30;;;;;;;19.73;100.00;98411.66;5094006;28;20208;-76
2023/09/02 07:56:57;;;;;;;4.13;2.73;;;;;;;19.54;100.00;98415.94;5093988;28;20204;-76
2023/09/02 07:59:23;;;;;;;4.23;2.60;;;;;;;19.50;100.00;98417.56;5093878;28;20227;-76
2023/09/02 08:01:49;;;;;;;4.80;2.67;;;;;;;19.70;100.00;98414.09;5094260;28;20246;-76
2023/09/02 08:04:16;;;;;;;4.57;2.53;;;;;;;19.63;100.00;98413.56;5094055;28;20204;-76
2023/09/02 08:06:43;;;;;;;2.57;2.37;;;;;;;19.83;100.00;98418.13;5093806;28;20210;-76
2023/09/02 08:09:09;;;;;;;5.23;2.40;;;;;;;19.81;100.00;98428.41;5093505;28;20757;-76
2023/09/02 08:11:35;;;;;;;3.87;2.40;;;;;;;19.81;100.00;98428.41;5093432;28;20206;-76
2023/09/02 08:14:02;;;;;;;3.20;2.10;;;;;;;20.11;100.00;98428.44;5093797;28;20200;-76
2023/09/02 08:16:28;;;;;;;2.97;2.63;;;;;;;20.07;100.00;98417.31;5093963;28;20218;-76
2023/09/02 08:18:55;;;;;;;2.40;2.20;;;;;;;20.21;100.00;98423.03;5093302;28;20234;-76
2023/09/02 08:21:21;;;;;;;3.43;2.30;;;;;;;20.36;100.00;98425.72;5093757;28;20199;-76
2023/09/02 08:23:47;;;;;;;3.30;2.57;;;;;;;20.35;100.00;98421.41;5093576;28;20207;-76
2023/09/02 08:26:14;;;;;;;4.10;2.20;;;;;;;20.41;100.00;98420.28;5093731;28;20213;-76
2023/09/02 08:28:42;;;;;;;2.57;2.20;;;;;;;20.46;100.00;98420.28;5093384;28;20233;-76
2023/09/02 08:31:11;;;;;;;4.30;2.53;;;;;;;20.49;100.00;98419.75;5093440;28;20223;-76
2023/09/02 08:33:37;;;;;;;4.63;2.63;;;;;;;20.54;100.00;98427.84;5093572;28;20297;-76
2023/09/02 08:36:04;;;;;;;2.43;2.17;;;;;;;20.59;100.00;98419.72;5093549;28;20204;-76
2023/09/02 08:38:30;;;;;;;3.90;2.57;;;;;;;20.72;100.00;98424.56;5085887;28;20203;-76
2023/09/02 08:40:58;;;;;;;3.27;2.33;;;;;;;20.54;100.00;98417.84;5081392;28;20203;-76
2023/09/02 08:43:26;;;;;;;2.73;2.53;;;;;;;20.74;100.00;98419.66;5073305;28;20208;-76
2023/09/02 08:45:53;;;;;;;3.03;2.80;;;;;;;20.76;100.00;98420.22;5073216;28;20200;-76
2023/09/02 08:48:24;;;;;;;3.30;2.33;;;;;;;20.78;100.00;98420.75;5073205;28;20208;-76
2023/09/02 08:50:52;;;;;;;2.87;2.60;;;;;;;20.79;100.00;98425.09;5072934;28;20703;-76
2023/09/02 08:53:20;;;;;;;3.20;2.90;;;;;;;20.91;100.00;98429.13;5073261;28;20266;-76
2023/09/02 08:55:48;;;;;;;2.80;2.50;;;;;;;21.02;100.00;98438.00;5073232;28;20574;-78
2023/09/02 08:58:15;;;;;;;4.37;3.20;;;;;;;21.24;100.00;98431.13;5072855;28;20208;-76
2023/09/02 09:00:44;;;;;;;3.87;2.63;;;;;;;21.41;100.00;98438.88;5073021;28;20703;-76
2023/09/02 09:03:12;;;;;;;6.00;3.03;;;;;;;21.51;100.00;98449.66;5072731;28;20204;-76
2023/09/02 09:05:43;;;;;;;5.20;2.60;;;;;;;21.71;100.00;98444.16;5073065;28;20211;-76
2023/09/02 09:08:12;;;;;;;3.97;2.67;;;;;;;21.59;100.00;98451.78;5073179;28;20295;-76
2023/09/02 09:10:41;;;;;;;4.60;2.40;;;;;;;21.85;100.00;98450.56;5073157;28;20254;-76
2023/09/02 09:13:10;;;;;;;4.57;2.87;;;;;;;22.11;100.00;98446.56;5073356;28;20201;-76
2023/09/02 09:15:37;;;;;;;3.00;2.50;;;;;;;22.02;100.00;98440.16;5073310;28;20595;-76
2023/09/02 09:18:04;;;;;;;3.83;2.43;;;;;;;22.15;100.00;98442.22;5072858;28;20561;-76
2023/09/02 09:20:32;;;;;;;3.90;2.55;;;;;;;22.43;100.00;98444.13;5072660;28;20221;-76
2023/09/02 09:22:58;;;;;;;4.05;2.85;;;;;;;22.20;100.00;98442.16;5072870;28;20208;-76
2023/09/02 09:25:25;;;;;;;3.83;2.67;;;;;;;22.45;100.00;98450.06;5076772;28;20208;-76
2023/09/02 09:27:51;;;;;;;3.75;2.58;;;;;;;22.40;100.00;98447.38;5076628;28;20205;-76
2023/09/02 09:30:28;;;;;;;4.45;2.50;;;;;;;22.59;100.00;98448.31;5076226;28;20576;-76
2023/09/02 09:33:01;;;;;;;4.25;2.45;;;;;;;22.51;100.00;98459.75;5076459;28;20337;-76
2023/09/02 09:35:28;;;;;;;3.92;3.47;;;;;;;22.41;100.00;98452.53;5077095;28;20220;-76
2023/09/02 09:37:56;;;;;;;3.78;2.40;;;;;;;22.58;100.00;98458.38;5076402;28;20208;-76
2023/09/02 09:40:32;;;;;;;3.95;2.65;;;;;;;22.82;100.00;98444.81;5076254;28;20224;-76
2023/09/02 09:43:00;;;;;;;4.13;2.08;;;;;;;22.91;100.00;98451.22;5075886;28;20686;-76
2023/09/02 09:45:27;;;;;;;4.20;2.92;;;;;;;23.02;100.00;98447.31;5076450;28;20204;-76
2023/09/02 09:48:09;;;;;;;2.78;2.30;;;;;;;22.99;100.00;98445.16;5076246;28;20566;-76
2023/09/02 09:50:35;;;;;;;3.83;2.15;;;;;;;23.36;100.00;98440.66;5075778;28;20687;-76
2023/09/02 09:53:04;;;;;;;3.33;2.30;;;;;;;23.26;100.00;98448.94;5076226;28;20211;-76
2023/09/02 09:55:31;;;;;;;2.92;2.72;;;;;;;23.34;100.00;98447.47;5075614;28;20698;-76
2023/09/02 09:57:59;;;;;;;2.83;2.22;;;;;;;23.55;100.00;98444.19;5076234;28;20215;-76
2023/09/02 10:00:28;;;;;;;2.50;2.30;;;;;;;23.77;100.00;98443.59;5075587;28;20270;-76
2023/09/02 10:02:56;;;;;;;4.22;2.15;;;;;;;23.84;100.00;98446.78;5076095;28;20215;-76
2023/09/02 10:05:30;;;;;;;3.15;2.20;;;;;;;24.18;100.00;98441.91;5075794;28;20201;-76
2023/09/02 10:08:05;;;;;;;5.35;2.30;;;;;;;24.22;100.00;98449.19;5076641;28;20185;-76
2023/09/02 10:10:36;;;;;;;2.55;1.98;;;;;;;24.11;100.00;98441.50;5075653;28;20242;-76
2023/09/02 10:13:04;;;;;;;2.10;1.90;;;;;;;24.51;100.00;98441.59;5075501;28;20201;-76
2023/09/02 10:15:31;;;;;;;2.83;2.13;;;;;;;24.52;100.00;98436.97;5075951;28;20207;-76
2023/09/02 10:18:00;;;;;;;3.60;2.10;;;;;;;24.62;100.00;98436.81;5075465;28;20209;-76
2023/09/02 10:20:29;;;;;;;2.88;2.45;;;;;;;24.29;100.00;98444.16;5075348;28;20707;-76
2023/09/02 10:23:04;;;;;;;3.72;2.35;;;;;;;24.14;94.40;98449.03;5075535;28;20214;-76
2023/09/02 10:25:37;;;;;;;2.60;2.40;;;;;;;24.44;94.80;98437.66;5074866;28;20191;-76
2023/09/02 10:28:05;;;;;;;4.28;2.80;;;;;;;24.60;92.87;98444.47;5075492;28;20195;-76
2023/09/02 10:30:51;;;;;;;2.05;1.95;;;;;;;24.72;90.80;98436.63;5075185;28;20228;-76
2023/09/02 10:33:17;;;;;;;1.90;1.80;;;;;;;24.87;88.00;98447.22;5075313;28;20189;-76
2023/09/02 10:35:47;;;;;;;2.85;1.85;;;;;;;24.92;90.33;98433.53;5074628;28;20218;-76
2023/09/02 10:38:20;;;;;;;3.08;2.42;;;;;;;24.89;92.76;98436.84;5075504;28;20204;-76
2023/09/02 10:40:54;;;;;;;3.33;2.10;;;;;;;25.28;84.65;98437.97;5075191;28;20192;-76
2023/09/02 10:43:21;;;;;;;2.30;1.75;;;;;;;25.27;86.75;98433.63;5073970;28;20193;-76
2023/09/02 10:45:48;;;;;;;1.77;1.67;;;;;;;25.30;84.29;98440.38;5073516;28;20295;-76
2023/09/02 10:48:15;;;;;;;2.65;1.70;;;;;;;25.00;80.67;98435.50;5074929;28;20288;-76
2023/09/02 10:50:42;;;;;;;4.30;2.17;;;;;;;24.86;79.92;98438.25;5074698;28;20238;-76
2023/09/02 10:53:09;;;;;;;2.92;1.75;;;;;;;25.08;79.39;98426.66;5074453;28;20258;-76
2023/09/02 10:55:58;;;;;;;2.05;1.90;;;;;;;24.92;79.56;98428.09;5074512;28;20697;-76
2023/09/02 10:58:25;;;;;;;3.05;1.80;;;;;;;24.98;83.48;98435.03;5074681;28;20199;-76
2023/09/02 11:00:53;;;;;;;2.33;1.80;;;;;;;25.40;76.99;98423.81;5075777;28;20201;-76
2023/09/02 11:03:46;;;;;;;2.67;1.85;;;;;;;25.43;79.75;98424.03;5074805;28;20574;-76
2023/09/02 11:06:15;;;;;;;2.50;1.90;;;;;;;25.59;73.42;98419.84;5074483;28;20205;-77
2023/09/02 11:08:49;;;;;;;2.65;1.88;;;;;;;25.32;72.72;98422.63;5074594;28;20231;-78
2023/09/02 11:11:16;;;;;;;1.92;1.60;;;;;;;25.77;70.24;98423.53;5074517;28;20675;-77
2023/09/02 11:14:07;;;;;;;1.92;1.67;;;;;;;25.51;72.10;98422.50;5074638;28;20230;-77
2023/09/02 11:16:35;;;;;;;2.60;2.40;;;;;;;25.30;73.02;98413.16;5074233;28;20567;-78
2023/09/02 11:19:06;;;;;;;1.80;1.60;;;;;;;25.37;74.25;98421.72;5074575;28;20224;-77
2023/09/02 11:21:46;;;;;;;1.88;1.77;;;;;;;25.68;71.33;98414.47;5074462;28;20185;-77
2023/09/02 11:24:17;;;;;;;2.05;1.60;;;;;;;25.26;72.33;98415.69;5074539;28;20193;-77
2023/09/02 11:27:10;;;;;;;1.67;1.58;;;;;;;25.03;72.38;98413.16;5074441;28;20207;-77
2023/09/02 11:29:36;;;;;;;2.72;2.00;;;;;;;25.15;71.65;98414.25;5071230;28;20734;-77
2023/09/02 11:32:05;;;;;;;4.38;1.90;;;;;;;25.46;72.03;98417.19;5073480;28;20607;-77